Les résultats vous sont offerts par

Télécharger en pdf

La foulée des vendanges - 10 km

21/10/2017 - Savigny les Beaune

1064 classés sur 1113 inscrits

Catégorie Ordre Scratch Dossard Nom Prénom Sexe Temps
BE - F 1 901 112  BOSSET  JEANNE F 01:00:50
MI - M 1 130 54  BEAUMONT  LUCAS M 00:43:13
CA - F 1 433 465  INTISSAR  BENJDIR F 00:49:44
2 449 141  BRABANT  ALICE F 00:50:05
3 529 328  FANTON  EMMA F 00:51:49
4 829 479  JAUZI  MARINE F 00:58:22
5 842 1077  ALEXANDRE  JULIETTE F 00:58:44
6 954 27  BARZDAITE  AUGUSTINA F 01:03:27
7 1044 92  BOITEAU  JEANNE F 01:11:18
CA - M 1 8 657  DORAS  NATHAN M 00:35:27
2 12 1028  LAISSUS  HUGO M 00:36:03
3 28 1031  RENAUD  HECTOR M 00:38:20
4 41 60  BELLANG  BENJAMIN M 00:39:10
5 48 835  SAINT GILLES  STEVAN M 00:39:45
6 176 552  LONJARET  BAPTISTE M 00:44:28
7 189 691  PANIN  CLEMENT M 00:44:42
8 201 751  POLET  HUGO M 00:44:49
9 218 86  BLOND  BAPTISTE M 00:45:11
10 220 42  BARTHELMEBS  VICTOR M 00:45:17
11 297 69  BERNARD  MALO M 00:47:06
12 305 500  LACHAUX  THEO M 00:47:11
13 318 422  GROSPERRIN  JOANNY M 00:47:23
14 386 489  JOLY  REMI M 00:48:51
15 483 1024  BILLARD  LOUIS M 00:50:46
16 500 547  LOIR  MARIUS M 00:51:07
17 523 630  MOLARD  LEO M 00:51:45
18 635 951  WHITEHEAD  SAMUEL M 00:54:03
19 651 281  DESPRES  CORENTIN M 00:54:21
20 788 208  CLERC  LUCA M 00:57:42
JU - F 1 365 670  NONQUE  JULIE F 00:48:21
2 697 21  ANGINOT  JULIE F 00:55:16
3 742 655  NASSIVERA  MANON F 00:56:19
4 851 200  CHEVALIER  LEA F 00:59:03
5 1040 718  PERRIER  VICTORIA F 01:10:08
JU - M 1 21 611  BOUTON  MAXIME M 00:37:39
2 42 309  DUREUIL  LEOPOLD M 00:39:13
3 47 480  JAVOUHEY  CLEMENT M 00:39:45
4 49 165  CAMBAZARD  ARNAUD M 00:39:45
5 62 324  CHABROL  FABIEN M 00:40:32
6 83 266  DEMEUZOY  LOICK M 00:41:19
7 92 12  ALIX  ARTHUR M 00:41:39
8 103 419  GROSPERRIN  ADRIEN M 00:42:16
9 119 668  NOIROT  CORENTIN M 00:42:56
10 209 132  BOURGEOIS  ROMAIN M 00:45:00
11 223 152  BROCHIN  HUGO M 00:45:20
12 374 499  KUKULINSKI  ALAN M 00:48:30
13 401 585  MARME  HUGO M 00:49:07
14 527 781  RAMAC  JOVAN M 00:51:48
15 602 786  RAVON  TITOUAN M 00:53:10
16 909 604  MATIGNY  BAPTISTE M 01:01:07
ES - F 1 76 754  POMPANON  MARGOT F 00:41:08
2 330 729  PHILIPPOT  MELANIE F 00:47:41
3 343 840  SANCHEZ  ELENA F 00:47:52
4 352 85  BIZOUARD  MATHILDE F 00:48:05
5 592 823  ROUSSELOT  ELODIE F 00:52:55
6 776 438  GUISADO  MARGOT F 00:57:10
7 980 64  BENO  MATHILDE F 01:04:29
ES - M 1 20 806  RIZET  JEREMY M 00:37:03
2 25 99  BONNIN  ARMAND M 00:38:02
3 27 313  ELIAS  BERNARD M 00:38:17
4 40 448  HAVRET  MAXIME M 00:39:09
5 67 767  PROTHEAU  VICTOR M 00:40:44
6 68 551  LONJARET  ANTOINE M 00:40:44
7 72 988  LE GOUEDEC  GREGOIRE M 00:40:58
8 114 839  SAMYR  HUGO M 00:42:47
9 134 634  MOLL  ANTONIN M 00:43:19
10 135 824  ROUX  BAPTISTE M 00:43:20
11 145 937  VIAL  JASON M 00:43:30
12 192 400  GIRAUD  THOMAS M 00:44:44
13 196 302  DUMOUX  MARIN M 00:44:47
14 203 1019  MATHIRON  ARTHUR M 00:44:52
15 231 676  NUZILLAT  ELIOTH M 00:45:30
16 465 364  GAILLARDIN  MAXIME M 00:50:24
17 543 148  BRIGANDAT  ELYSEE M 00:52:11
18 555 743  PLAT  VALENTIN M 00:52:22
19 617 607  MAURICE  BENOIT M 00:53:36
20 703 818  ROUARD  ANTOINE M 00:55:24
21 818 975  BOUDOT  TONY M 00:58:10
22 823 38  BAROIN  WILLIAM M 00:58:18
SE - F 1 50 780  RAFFA  ANNE SOPHIE F 00:39:47
2 71 272  DESBOIS  CARINE F 00:40:57
3 79 906  TITARENKO  NATALIA F 00:41:11
4 158 279  DESNOYERS  LUCIE F 00:44:01
5 171 753  POMPANON  LAURA F 00:44:18
6 178 43  BASSORA  FANNY F 00:44:30
7 266 117  BOUDIER  MELANIE F 00:46:22
8 288 58  BECK  AMELIE F 00:46:53
9 304 1092  GIVRY  MARLENE F 00:47:09
10 311 426  GUENEL  FANNY F 00:47:20
11 317 461  HUMBLOT  VICK F 00:47:22
12 359 162  BUSSIERE  HELENE F 00:48:16
13 366 914  TREMEAUX  MARIE CECILE F 00:48:22
14 373 534  LETENDU  AURORE F 00:48:29
15 376 813  ROSEL  ANNE LISE F 00:48:32
16 377 580  MARILLIER  MARGOT F 00:48:32
17 398 1058  LAVEZ  ROSINE F 00:49:04
18 445 120  BOUGE  MARINE F 00:50:00
19 455 83  BINETTI  MARGAUX F 00:50:11
20 476 831  SAGETAT  MYRTILLE F 00:50:33
21 486 94  BONIN  MAUD F 00:50:49
22 509 880  SUCHET  EMMANUELLE F 00:51:14
23 514 985  NICOLAS  ESTELLE F 00:51:22
24 519 189  CHARLEUX  TIFFANY F 00:51:38
25 528 721  PETEUIL  AURELIE F 00:51:48
26 542 1104  SALIGNON  LAURE F 00:52:11
27 560 362  GAGNEPAIN  MAGALI F 00:52:27
28 573 713  PERONNE  EMILIE F 00:52:36
29 578 513  LAPIERRE  CAMILLE F 00:52:41
30 581 957  ZECCHINI  ANGELINE F 00:52:44
31 583 77  BESSON  PAULINE F 00:52:46
32 593 1052  RANDELOT  INGRID F 00:52:55
33 594 36  BARBEY  LUDIVINE F 00:52:56
34 598 243  DANGUIS  LAURENCE F 00:53:04
35 599 425  GUDJONCIK  AURELIE F 00:53:05
36 604 821  ROUSSEAU  ELEONORE F 00:53:15
37 607 53  BEAUMONT  JENNIFER F 00:53:19
38 608 778  RADEK  ESTELLE F 00:53:19
39 609 306  DUPONT  FANNY F 00:53:19
40 619 462  HUSSON  MATHILDE F 00:53:38
41 622 665  NOEL  MELANIE F 00:53:44
42 629 595  MARTINEZ  FLORIANE F 00:53:47
43 631 1080  FAUDAN  ANNE F 00:53:55
44 637 275  DESCOTES  JULIETTE F 00:54:04
45 640 528  LEFEUVRE  SOLENE F 00:54:05
46 645 901  THORINY  MARIE LAURE F 00:54:13
47 646 875  SPRINGINSFELD  INGRID F 00:54:13
48 648 151  BROCHET  JESSICA F 00:54:18
49 658 1078  ALEXANDRE  CLEMENCE F 00:54:25
50 659 603  MATHIRON  ANNE SOPHIE F 00:54:26
51 660 205  CINTRAT  CAMILLE F 00:54:27
52 680 606  MAUPAS  GAELLE F 00:54:56
53 685 709  PEGNA  AURELIE F 00:54:59
54 694 57  BEAUPOIL ROBIN  MARION F 00:55:11
55 698 363  GAILLARD  MARION F 00:55:19
56 705 843  SANCHEZ  MYRIAM F 00:55:28
57 707 35  BARBERET  LUCILE F 00:55:31
58 710 142  BRAC  CINDY F 00:55:33
59 711 245  DAVENNE  ANNE F 00:55:33
60 712 434  GUILLAUMOT  JULIE F 00:55:36
61 717 845  SANTA FERREIRA  VERONIQUE F 00:55:45
62 723 930  VAZ  THERESA F 00:55:52
63 734 804  RIDELOVA  VERONIKA F 00:56:09
64 735 536  LEVEQUE  FLORENCE F 00:56:10
65 736 158  BRUNO  ANGELINA F 00:56:11
66 745 1029  GARCIA  MELANIE F 00:56:26
67 750 598  MASSE  EMILIE F 00:56:31
68 753 586  MARMIER  MELANIE F 00:56:33
69 754 14  AMICO  LAETITIA F 00:56:34
70 772 673  NORET  VIRGINIE F 00:57:05
71 773 232  COUTURIER  KARINE F 00:57:06
72 777 912  TOURNIER  CONSTANCE F 00:57:13
73 781 227  COTTIN  GARANCE F 00:57:30
74 783 956  ZAWORSKI  MORGANE F 00:57:33
75 786 632  MOLET  LUCIE F 00:57:40
76 790 103  BOQUET  AMELIE F 00:57:44
77 791 969  DELAVAULT  VALERIE F 00:57:47
78 801 63  BENO  CHLOE F 00:57:59
79 802 730  PHILIPS  CAROLINE F 00:58:00
80 804 522  LEBRUN  SABRINA F 00:58:03
81 814 166  CHORFI  CAMILLE F 00:58:07
82 816 651  MOUILEH  HASSNA F 00:58:08
83 819 246  DAVID  CARINE F 00:58:11
84 820 910  TOSI BRIE  SEVERINE F 00:58:11
85 827 556  LUC  AURELIE F 00:58:21
86 835 437  GUINGAND  ESTELLE F 00:58:35
87 836 640  MONNOT  MELANIE F 00:58:36
88 837 994  VOISIN  ANNA F 00:58:37
89 838 726  PETIT  JULIE F 00:58:39
90 840 610  MAUROIS  IDA F 00:58:43
91 848 765  PRIMERANO  AURELIE F 00:58:56
92 859 773  QUENOT  EUGENIE F 00:59:11
93 864 1133  TERRAND  STEPHANIE F 00:59:19
94 872 942  VILLEROT  SANDRA F 00:59:34
95 873 899  THIOURT  DELPHINE F 00:59:37
96 876 67  BERNARD  JULIE F 00:59:44
97 885 736  PILLOUD  STEPHANIE F 00:59:58
98 888 959  ZGLINSKI SERVANT  LAURE F 01:00:18
99 894 9  REGOURD  ALICE F 01:00:37
100 900 1016  DUPRE  CHARLOTTE F 01:00:48
101 908 395  GIRARD DIMITROVA  VERA F 01:00:59
102 912 361  GAGNEPAIN  AUDE F 01:01:18
103 913 760  POUPON  CHARLENE F 01:01:20
104 915 391  GILG  ALEXANDRA F 01:01:24
105 916 557  LUC  EMILIE F 01:01:26
106 918 294  DOUSSOT  MARINE F 01:01:32
107 922 284  DIAS  CECILE F 01:01:49
108 923 230  COURNAULT  TESS F 01:01:51
109 926 88  BLUZETBLUZE  MEAGANE F 01:01:59
110 929 1043  GHISLANDI  AURELIE F 01:02:28
111 931 815  ROSSET  SABINE F 01:02:29
112 933 315  EPSZTEIN  HELENE F 01:02:31
113 934 4  AIT SALAH  CECILE F 01:02:31
114 938 828  ROY  MYRIAM F 01:02:46
115 940 487  JOLY  JUSTINE F 01:02:56
116 942 575  MAREY  KATHLEEN F 01:03:00
117 945 346  FOUASSIER  LAETITIA F 01:03:07
118 951 310  DUVERNEAU  LAETITIA F 01:03:14
119 955 734  PICORNOT  LAURE F 01:03:32
120 956 384  GEORGEON  CHARLINE F 01:03:34
121 959 338  FERREIRA  AUDREY F 01:03:39
122 961 497  KASPRZYK  ANNE LAURE F 01:03:40
123 963 163  BUSSIERE  RACHEL F 01:03:43
124 965 934  VERPEAUX  MARION F 01:03:45
125 969 278  DESJOURS  ANNE F 01:03:53
126 972 981  CANET  INGRID F 01:03:56
127 976 37  BARDEL  LEA F 01:04:11
128 977 905  TISSERAND  CINDY F 01:04:16
129 978 633  MOLHERAT  MARION F 01:04:28
130 984 616  MERIAUX  EVE F 01:04:56
131 992 897  THIERRY  CELINE F 01:05:28
132 994 677  OLIVIER  EMILI F 01:05:57
133 996 286  DICONNE  STEPHANIE F 01:05:59
134 999 991  PONNELLE  MATHILDE F 01:06:08
135 1003 1014  BESCIOJIAN  TEREZA F 01:06:27
136 1005 717  PERRIER  LAURIANE F 01:06:34
137 1007 223  CORBIN  LUCIE F 01:06:37
138 1008 1015  LHUILLIER  NOEMIE F 01:06:42
139 1009 884  TALLANT  CAMILLE F 01:06:47
140 1012 642  MONTOLOY  CLAIRE F 01:06:50
141 1013 473  JAGOT  ELODIE F 01:06:58
142 1015 70  BERNARDOT  CELINE F 01:07:41
143 1024 31  BAHUON  MANUELLE F 01:08:24
144 1025 939  VIGNERON  JENNIFER F 01:08:25
145 1028 124  BOULEY  JENNIFER F 01:08:32
146 1031 829  RUIU  GWENDOLINE F 01:08:48
147 1032 871  SOISSON  LORRAINE F 01:08:52
148 1036 389  GIL  LAURA F 01:09:39
149 1037 102  BONVALLOT  JULIE F 01:09:55
150 1038 663  NIE  OLYMPE F 01:09:57
151 1039 533  LEPATRE  STEPHANIE F 01:10:05
152 1042 238  DADDA  YSLEM F 01:10:40
153 1043 945  VIVIER  MARIE SOPHIE F 01:11:16
154 1048 1068  LICKEL  MARIE F 01:12:36
155 1049 1062  MESSER  SOPHIE F 01:12:36
156 1050 846  SANTI  ELODIE F 01:12:39
157 1051 213  COMBET  MARINE F 01:12:40
158 1053 800  REVERDY  ELISE F 01:13:11
159 1058 701  PARRAIRE  MARINE F 01:16:07
160 1059 280  DESPLANCHES  MANON F 01:17:53
SE - M 1 1 976  BRUYAS  MAXENCE M 00:33:15
2 2 176  CHAHID  KHALID M 00:33:32
3 3 11  ALIX  ADRIEN M 00:33:41
4 4 791  REMOND  THOMAS M 00:33:53
5 7 215  COMPAROT  ANTOINE M 00:35:16
6 9 569  MALDONADO  GUILLAUME M 00:35:54
7 10 1105  PECHE  MATTHIEU M 00:36:00
8 11 520  LEBLANC  YOHAN M 00:36:03
9 14 343  FLECHEUX  BENJAMIN M 00:36:10
10 17 323  EYMANN  MATTHIEU M 00:36:39
11 18 405  GOLLOTTE  GEOFFREY M 00:36:42
12 22 966  DUVERGEY  ARNAUD M 00:37:44
13 23 344  FONDREVELLE  MATHIEU M 00:37:49
14 24 483  JEAN SEBASTIEN  LOISY M 00:37:56
15 29 130  BOURGEOIS  NICOLAS M 00:38:24
16 30 248  DAVID  MICKAEL M 00:38:36
17 31 992  RICHARD  MATHIEU M 00:38:40
18 34 1017  BARDINI  GERALD M 00:38:56
19 37 190  CHARPENTIER  ARNAUD M 00:39:03
20 45 1103  CLERE  FRANCOIS M 00:39:25
21 46 222  CORBET  STEPHANE M 00:39:44
22 51 544  LLACER  JONATHAN M 00:40:01
23 53 770  PUZENAT  AURELIEN M 00:40:03
24 54 521  LEBOEUF  NICOLAS M 00:40:06
25 55 798  RETAILLEAU  ALEX M 00:40:08
26 56 936  VERY  SEBASTIEN M 00:40:09
27 57 381  GAY  MATHIEU M 00:40:10
28 58 73  BERT  ANTOINE M 00:40:10
29 60 253  DEBROYE  MAXIME M 00:40:15
30 61 724  PETIT  GEOFFREY M 00:40:18
31 64 233  CREN LARVOR  ARNAUD M 00:40:35
32 65 451  HERON  NICOLAS M 00:40:38
33 66 909  TONOT  VICTOR M 00:40:42
34 74 748  POIRINE  HUGO M 00:41:01
35 75 974  DIANE  MAMADOU M 00:41:06
36 81 987  LE GOUEDEC  GUILLAUME M 00:41:16
37 85 1011  TOMASIR  KEVIN M 00:41:28
38 88 584  MARLIER  REGIS M 00:41:35
39 91 507  LAMONICA  DAMIEN M 00:41:39
40 94 789  REBULLIOT  LAURENT M 00:41:41
41 95 1056  MENDES  FERNANDO M 00:41:42
42 97 172  CATELAIN  ANTOINE M 00:41:48
43 98 508  LAMOURE  HENRI NOEL M 00:41:48
44 102 819  ROULOT  JEREMY M 00:42:12
45 113 249  PEREZ  DAVID M 00:42:40
46 117 553  LORRILLIARD  NICOLAS M 00:42:53
47 137 1074  ALEXANDRE  SIMON M 00:43:21
48 139 867  SIMONNEAU  CHRISTOPHE M 00:43:23
49 142 531  LEGUY  JEREMY M 00:43:28
50 144 740  PISTRE  VICTOR M 00:43:29
51 146 984  CHAPET  QUENTIN M 00:43:31
52 149 1084  ROBADEY  CAMILLE M 00:43:34
53 161 935  VERSAVEL  GUILLAUME M 00:44:03
54 165 685  PAILLARD  HERVE M 00:44:04
55 166 524  LECLERC  THOMAS M 00:44:05
56 168 104  BORDEREAU  TEDDY M 00:44:13
57 169 1050  DEBROISE  MIKAEL M 00:44:15
58 170 349  FRANCK  ARTHUR M 00:44:16
59 173 96  BONNARDEL  XAVIER M 00:44:21
60 177 779  RADEK  MATHIEU M 00:44:29
61 179 514  LAROCHE  DAMIEN M 00:44:31
62 184 761  POUYET  STEPHANE M 00:44:37
63 186 168  CAPITAIN  PIERRE M 00:44:39
64 187 7  TAMISIER  ALEXANDRE M 00:44:41
65 188 334  FEMENIAS  LAURENT M 00:44:41
66 191 121  BOUILLOT  JEREMIE M 00:44:43
67 197 380  GAY  JULIEN HENRY M 00:44:47
68 199 1026  NOIROT  CLEMENT M 00:44:48
69 202 26  AUGAGNEUR  SIMON M 00:44:50
70 204 326  FAMY  BERTRAND M 00:44:52
71 207 881  SYLVAIN  REMI M 00:44:56
72 208 116  BOUDIER  JEROME M 00:44:58
73 211 662  NICOLET  VINCENT M 00:45:03
74 215 636  MONDAIN  JULIEN M 00:45:06
75 217 558  LUCAS  ARNAUD M 00:45:09
76 222 366  GALLET  JEROME M 00:45:18
77 224 376  GAUTHEY  SYLVAIN M 00:45:20
78 225 698  PARIS  YVON M 00:45:22
79 228 383  GENCE  STEPHANE M 00:45:27
80 229 1060  WILSON  MICKAEL M 00:45:28
81 230 826  ROVILLE  LUDOVIC M 00:45:29
82 235 681  OUARDI  ISMAEL M 00:45:41
83 243 554  LORY  BAPTISTE M 00:45:53
84 244 188  CHARLEUX  BENJAMIN M 00:45:54
85 250 308  DURAND  THOMAS M 00:46:04
86 254 645  MOREIL  VINCENT M 00:46:06
87 257 572  MALTAVERNE  BRUNO M 00:46:09
88 258 862  SELLENET  CEDRIC M 00:46:09
89 259 182  CHAMPENOIS  QUENTIN M 00:46:09
90 261 549  LOISY  LAURENT M 00:46:12
91 262 983  CHAPET  MAXIMILIEN M 00:46:14
92 267 695  PAPEZ  NICOLAS M 00:46:22
93 270 641  MONTHELIE  FRANCOIS M 00:46:32
94 275 612  MAZAN  EMERIC M 00:46:35
95 277 649  MORTUREUX  STEPHANE M 00:46:39
96 285 904  TISSERAND  BENOIT M 00:46:49
97 286 264  DELCEY  SYLVAIN M 00:46:51
98 289 599  MASSON  NICOLAS M 00:46:54
99 291 311  EGRON  EMMANUEL M 00:46:56
100 292 654  MUZARD  ROMAIN M 00:46:56
101 298 929  VAUTIER  ROMAIN M 00:47:06
102 303 187  CHARLES  ROMAIN M 00:47:08
103 314 125  BOULLAIT  BENJAMIN M 00:47:21
104 325 535  LETHIMONNIER  FLORIAN M 00:47:35
105 327 1102  HERY  MATHIEU M 00:47:39
106 328 690  PANDOLFO  SEBASTIEN M 00:47:39
107 334 739  PISTRE  THIBAUD M 00:47:45
108 335 950  WATERKEYN  WILLIAM M 00:47:46
109 339 341  FEURTEY  VINCENT M 00:47:50
110 349 3  AGUILAR  KARL M 00:48:02
111 350 1108  MATEOS  ROMAIN M 00:48:02
112 355 354  FRANZI  ERIC M 00:48:08
113 357 903  TISSERAND  ARNAUD M 00:48:12
114 361 368  GARNIER SAVARD  BENOIT M 00:48:18
115 367 797  REPEC  MATHIEU M 00:48:22
116 369 913  TREMEAUX  LUDOVIC M 00:48:23
117 371 427  GUERRIN  PIERRE M 00:48:27
118 381 523  LECHENAULT  SAMUEL M 00:48:42
119 382 235  CUILLIER  CHRISTIAN M 00:48:44
120 385 402  GIVRY  FREDERIC M 00:48:47
121 387 747  POINCENOT  JEAN LUCIEN M 00:48:51
122 388 80  BIGEARD  NICOLAS M 00:48:51
123 391 509  LAMOURE  JULIEN M 00:48:54
124 393 316  GIRARD  ERIC M 00:48:56
125 394 857  SECONDE  JEREMY M 00:48:56
126 395 583  MARIOTTE  FLORENT M 00:48:58
127 400 1044  GHISLAND  PIERRE M 00:49:06
128 402 424  GRUSON  GAEL M 00:49:07
129 403 254  DECOMBE  FLORENT M 00:49:08
130 404 949  VOYE  JULIEN M 00:49:08
131 407 373  GAUTHERET  JEREMY M 00:49:12
132 413 859  SECULA  NICOLAS HERVE M 00:49:14
133 419 411  GOUX  VICTOR M 00:49:18
134 423 393  GIRARD  JULIEN M 00:49:25
135 426 666  MOINGEON  NOEL M 00:49:29
136 430 639  MONNOT  DENIS M 00:49:36
137 435 399  GIRAUD  KEVIN M 00:49:47
138 436 853  SCHERRER  RAPHAEL M 00:49:48
139 443 1009  HASNAOUI  GREGORY M 00:49:59
140 446 201  CHIRON  OLIVIER M 00:50:02
141 448 537  LEVOTRE  CHRISTIAN M 00:50:04
142 454 568  MAIRET  GERALD M 00:50:11
143 456 288  DINKEL  EDOUARD M 00:50:12
144 462 335  FERNANDES  NICOLAS M 00:50:21
145 464 493  JONES  GAWAIN M 00:50:21
146 469 999  HOLTZ  JULIEN M 00:50:30
147 471 916  TRIBAULT  LOUIS M 00:50:31
148 485 1037  PERRIN  LOIC M 00:50:48
149 492 617  MERLE  JEAN BAPTISTE M 00:50:59
150 497 715  PERREAU  THOMAS M 00:51:05
151 505 790  RELAVE  OLIVIER M 00:51:10
152 506 355  FREYSZ  MATHIEU M 00:51:11
153 507 447  HAVRET  KEVIN M 00:51:11
154 510 1098  MARTINS  MICHEL M 00:51:14
155 511 56  BEAUPOIL  SEBASTIEN M 00:51:15
156 518 890  THEURIAU  VALENTIN M 00:51:37
157 530 664  NOEL  MATTHIEU M 00:51:51
158 535 282  DEVAUGES  JB M 00:51:58
159 546 87  BLOUCTET  PATRICE M 00:52:14
160 550 128  BOURGEOIS  DAVID M 00:52:18
161 552 1065  LICKEL  CLAUDE M 00:52:20
162 558 925  VAILLANT  GEOFFROY M 00:52:26
163 559 459  HUBERSON  LOUIS M 00:52:26
164 565 543  LIVIN VUILLET  LAURENT M 00:52:30
165 566 970  DELARCHE  ETIENNE M 00:52:32
166 569 492  ROUX  JONATHAN M 00:52:33
167 577 1064  WEBER  PHILIPPE M 00:52:40
168 590 660  NICEY  BRUNO M 00:52:54
169 591 1  ADAM  FRANCOIS XAVIER M 00:52:55
170 596 924  VADOT  GUILLAUME M 00:52:57
171 605 738  PISSELOUP  LUDOVIC M 00:53:17
172 613 416  GRANGE  QUENTIN M 00:53:29
173 624 1075  DEMORTIERE  JEAN M 00:53:45
174 625 1073  MBAGIRA  DANIEL M 00:53:46
175 626 1071  TROUSSARD  AIMERIC M 00:53:46
176 627 614  MENDES  TONI M 00:53:46
177 641 893  THEVENIN  THIBAULT M 00:54:05
178 642 962  PERNET  NICOLAS M 00:54:08
179 643 1002  PERNETTE  FLORIAN M 00:54:10
180 649 186  CHAPPE  JULIEN M 00:54:19
181 654 996  DUPLUS  NICOLAS M 00:54:23
182 655 574  MANTELS  ERIC M 00:54:23
183 668 620  MEZZAVILLA  ADRIEN M 00:54:36
184 670 431  GUILLAUME  ALEXANDRE M 00:54:37
185 671 794  RENAUD  DAMIEN M 00:54:40
186 674 973  CHOUET  DAMIEN M 00:54:41
187 683 1023  NICOLARDOT  FABRICE M 00:54:58
188 689 1047  GIANNI  DAVID M 00:55:04
189 690 1039  PASCAL  ROMAIN M 00:55:05
190 695 61  BELOUFA  MEHDI M 00:55:14
191 696 548  LOISY  FABIEN M 00:55:14
192 699 170  CARDOSO  ANTONIO M 00:55:20
193 701 965  PONNELLE  GREGOIRE M 00:55:23
194 704 202  CHOPIN  VICTORIEN M 00:55:26
195 714 378  GAUTHIER  JEROME M 00:55:41
196 715 95  BONNARD  MICKAEL M 00:55:41
197 720 367  GALLOT  NICOLAS M 00:55:47
198 721 917  TRIBOLET  JEREMY M 00:55:49
199 722 793  RENARD  SEBASTIEN M 00:55:51
200 746 602  MATEOS  THIBAULT M 00:56:27
201 747 1030  BRIGANO  QUENTIN M 00:56:28
202 752 830  RUSSO  FRANCK M 00:56:32
203 764 231  COUTURAUD  GUILLAUME M 00:56:47
204 769 675  NOUVILLE  ROMUALD M 00:56:57
205 775 25  AUDRY  LOIC M 00:57:10
206 789 628  MINOT  VICTOR EMMANUEL M 00:57:43
207 795 76  BERTHIAUX  THOMAS M 00:57:54
208 800 171  CARRE  ROMAIN M 00:57:56
209 813 89  BOILLEY  GREGORY M 00:58:07
210 841 2  ADAO  DAVID M 00:58:44
211 850 179  CHALUMEAU  THOMAS M 00:59:01
212 854 29  AZEVEDO  MICHAEL M 00:59:07
213 858 436  GUILLIN  JEAN CHRISTOPHE M 00:59:11
214 860 1003  GELOT  VINCENT M 00:59:13
215 862 169  CAPODANNO  JULIEN M 00:59:17
216 865 1134  TERRAND  GEOFFREY M 00:59:20
217 880 997  CUZENARD  CLEMENT M 00:59:49
218 920 51  BEAUDOUX  GUILHEM M 01:01:32
219 935 982  ARGOUD  NAVIS M 01:02:31
220 937 1054  MINE  NICOLAS M 01:02:35
221 943 133  BOURGEON  AURELIEN M 01:03:03
222 949 433  GUILLAUME  VINCENT M 01:03:13
223 950 861  SEGUIN  THOMAS M 01:03:13
224 960 481  JAYKYMIW  PIERRE M 01:03:39
225 971 980  JOLIVET  FABRICE M 01:03:56
226 979 771  PYTHON CURT  BENOIT M 01:04:28
227 982 358  FROTEY  LOUIS M 01:04:34
228 983 98  BONNIN  ANTHONY M 01:04:48
229 986 505  LAINE  VINCENT M 01:05:03
230 1004 1013  LHUILLIER  AMELIEN M 01:06:28
231 1030 79  BEY  STEPHAN M 01:08:40
232 1057 482  BOUDRIAUT  JEAN BAPTISTE M 01:16:07
M1 - F 1 194 340  FERRERI  SOPHIE F 00:44:45
2 239 809  ROELANDT  NANA F 00:45:49
3 384 406  GONNEAU  CECILE F 00:48:46
4 392 526  LECOMTE  SANDRINE F 00:48:55
5 396 768  PROTTE  ANGELIQUE F 00:49:02
6 405 226  COTTANCIN  MYRIAM F 00:49:09
7 409 329  FANTON  SANDRINE F 00:49:13
8 418 711  PERNIN  SONIA F 00:49:17
9 457 869  SIMONNOT  VALERIE F 00:50:12
10 468 442  GUYOT  SOPHIE F 00:50:29
11 475 842  SANCHEZ  JOELLE F 00:50:33
12 493 683  OULD LARBI  YASMINA F 00:50:59
13 495 137  BOUTON  VERONIQUE F 00:51:00
14 496 693  PANIN  STEPHANIE F 00:51:01
15 516 320  ESCURE  CECILE F 00:51:30
16 540 475  JANIN  CHRISTINE F 00:52:11
17 544 144  BRESSAC  FREDERIQUE F 00:52:12
18 551 702  PARRIAULT  LYDIE F 00:52:19
19 561 263  DELBURY BOSSET  DAPHNE F 00:52:28
20 568 454  HOLA  MARIE F 00:52:32
21 570 224  ANGOT  CORINNE F 00:52:34
22 571 653  MUNOZ  VICTUDE F 00:52:34
23 576 886  TERAZZI  SYLVIE F 00:52:40
24 579 627  MINOT  DELPHINE F 00:52:42
25 580 347  FOVEAU  FREDERIQUE F 00:52:44
26 600 749  POIRINE  VALERIE F 00:53:05
27 606 512  LANGUEDOCQ FREVILLE  AURORE F 00:53:17
28 610 784  RAVENET  MARIE CHRISTINE F 00:53:20
29 612 737  PINGAT  ANNE SOPHIE F 00:53:25
30 623 667  NOEL VUILLOT  SANDRINE F 00:53:44
31 628 731  PICARD  CAROLE F 00:53:46
32 634 19  SINGER  ANGELIQUE F 00:53:58
33 650 539  L'HEVEDER  FABIENNE F 00:54:20
34 661 766  PROST  PRISCILLE F 00:54:28
35 662 65  BENO  NOELLE F 00:54:28
36 663 22  ARCHIDOIT  JOELLE F 00:54:28
37 665 304  DUPLOYER  MARTINE F 00:54:30
38 666 1132  VINCENT  VALERIE F 00:54:30
39 687 1066  ROUSSEL  MAGALI F 00:55:02
40 688 860  SECULA  VALERIE F 00:55:03
41 691 776  RACLE  SYLVIE F 00:55:07
42 706 468  ISAIE  MAGALI F 00:55:30
43 718 259  DELACOURT  AMANDINE F 00:55:46
44 719 723  PETEUIL  SEVERINE F 00:55:46
45 726 1094  KLEIN  DIVIA F 00:55:55
46 727 1097  FIGNON  VALERIE F 00:55:55
47 728 429  GUIDET  MARCELA F 00:55:56
48 729 440  GUYET  JOANNE F 00:55:56
49 738 952  WRIGHT  MARTHA F 00:56:13
50 739 237  DA SILVA  NATHALIE F 00:56:15
51 748 511  LANG RIPERT  ELSA F 00:56:28
52 759 686  PAIN  CARINE F 00:56:42
53 765 420  GROSPERRIN  ANNE LAURE F 00:56:48
54 766 964  GELLET  ISABELLE F 00:56:49
55 771 178  CHALANCON  NATHALIE F 00:57:04
56 774 374  GAUTHERON  AGNES F 00:57:08
57 780 895  THIBERT  ADELINE F 00:57:30
58 784 146  BRETON  GHISLAINE F 00:57:36
59 794 356  FRINGUET  LISON F 00:57:54
60 799 342  FEVRE  VALERIE F 00:57:55
61 805 10  ALINC  PEGGY F 00:58:04
62 806 883  TAINTURIER  LUDIVINE F 00:58:04
63 807 1088  DEVIGNE  STEPHANIE F 00:58:05
64 810 755  PONDAVEN  FREDERIQUE F 00:58:05
65 811 352  FRANCOIS  MARIE F 00:58:06
66 815 312  EL JABRI  ANISSA F 00:58:07
67 821 696  PAREL  JULIE F 00:58:15
68 826 196  CHENOT DUCOEUR  LYDIE F 00:58:21
69 832 892  THEVENAUT  FRANCINE F 00:58:23
70 834 192  CHARRA  SEGOLENE F 00:58:28
71 839 619  MESTAS  LAETITIA F 00:58:41
72 843 239  DAGAS  LUCIE F 00:58:45
73 844 277  DESERTAUX  GENEVIEVE F 00:58:49
74 845 472  JACQUESON  VALERIE F 00:58:50
75 847 219  CONVERS  SANDRINE F 00:58:55
76 849 1007  MACON  NATHALIE F 00:58:58
77 853 694  PANZANI  NATHALIE F 00:59:05
78 855 214  COMPARET  MARCELINE F 00:59:07
79 856 796  RENZULLO  CATHERINE F 00:59:08
80 857 403  GOBBO  SOPHIE F 00:59:11
81 861 566  MAIRE  AURELIE F 00:59:14
82 867 567  MAIRE  NELLY F 00:59:27
83 868 392  GILLOT  SANDRINE F 00:59:27
84 869 1086  FURET  VALERIE F 00:59:32
85 870 1089  LA MALLE  SANDRINE F 00:59:32
86 874 258  DEGUIN  SYLVIE F 00:59:38
87 875 174  LEPEULE  CATHERINE F 00:59:38
88 883 933  MASSE  VERONIQUE F 00:59:57
89 886 257  DEGRANGE  CORINNE F 01:00:12
90 889 150  BROCARD  SYBIL F 01:00:24
91 890 1059  HOCHART  LAURENCE F 01:00:25
92 892 372  GAURTHIER  EMMANUELLE F 01:00:35
93 898 679  OLLIN  EMMANUELLE F 01:00:43
94 905 252  DE LEIRIS  STEPHANIE F 01:00:57
95 906 850  SAUSSURE  SOLENE F 01:00:57
96 907 582  MEUROU  MARION F 01:00:57
97 910 848  SARRAZIN  SABINE F 01:01:09
98 927 496  KAMPF  ANGELA F 01:02:14
99 930 644  MOREAU  NATHALIE F 01:02:29
100 936 671  NONQUE  VIRGINIE F 01:02:34
101 944 270  DERATS  DOROTHEE F 01:03:04
102 953 530  LEGER  VIRGINIE F 01:03:19
103 957 816  ROSSET  SEVERINE F 01:03:36
104 958 488  JOLY  MICHELE F 01:03:38
105 964 283  DI MEGLIO  VIRGINIE F 01:03:45
106 966 1027  COQUET  NATHALIE F 01:03:46
107 967 82  BILLIDESJOURS  CHRISTELLE F 01:03:52
108 974 157  BRUNEAU  LAURENCE F 01:03:58
109 988 175  CAUSERET  ANNE F 01:05:12
110 991 93  BOIVIN  PATRICIA F 01:05:28
111 993 882  MULARD  SYLVIE F 01:05:56
112 995 225  COTE COLISSON  LAURENCE F 01:05:59
113 1000 160  BURSON  CORINNE F 01:06:14
114 1006 1040  NUGUES  KARINE F 01:06:37
115 1010 961  MAIRE  DELPHINE F 01:06:48
116 1011 398  GIRARDPECARRERE  AURELIE F 01:06:48
117 1014 268  DENEUVE  ANNELISE F 01:07:27
118 1017 229  COULON  STEPHANIE F 01:08:06
119 1019 81  BILLET  BEATRICE F 01:08:07
120 1020 648  MORLAIX  SOPHIE F 01:08:08
121 1021 808  ROBIN  SOPHIE F 01:08:11
122 1022 579  MARGUIER  SANDRINE F 01:08:23
123 1029 923  VACHEY  MARIE F 01:08:38
124 1033 581  MARINETTE  MARTIN F 01:09:03
125 1034 350  FRANCOIS  ANNE F 01:09:11
126 1041 122  BOULET  FLORENCE F 01:10:20
127 1054 873  SOTTY  AGNES F 01:13:14
128 1055 990  BONNET  NOELLA F 01:13:47
129 1061 878  STRIBY  VALERIE F 01:18:03
M1 - M 1 5 652  MULOT  CYRILLE M 00:33:56
2 6 71  BERNETTES  CEDRIC M 00:35:10
3 13 1004  BIZARD  SEBASTIEN M 00:36:08
4 15 13  ALIX  PIERRE JEAN M 00:36:14
5 16 127  BOUMEZZOUGH  ABDELGHANI M 00:36:36
6 19 331  FAURE  OLIVIER M 00:36:52
7 26 623  JOLY  MICHEL M 00:38:07
8 33 777  RACLOT  CHRISTIAN M 00:38:53
9 35 136  BOUTARFA  FREDERIC M 00:38:58
10 38 474  JANET  RAPHAEL M 00:39:05
11 39 452  CASTILLE  HERVE M 00:39:07
12 43 453  HEURET  FABRICE M 00:39:15
13 44 1005  BELORGEY  DENIS M 00:39:17
14 52 251  DE LEIRIS  CLEMENT M 00:40:02
15 59 844  SANTA FERREIRA  MICHEL M 00:40:15
16 63 490  JOLY  XAVIER M 00:40:35
17 69 439  GUITTON  FREDERIC M 00:40:50
18 73 971  BARBIEUX  GREGORY M 00:40:59
19 77 75  BERTHET  NICOLAS M 00:41:10
20 78 928  VANDROUX  ARNAUD M 00:41:10
21 80 722  PETEUIL  CEDRIC M 00:41:12
22 82 1042  OUABDESSELAM  KARIM M 00:41:17
23 90 72  BEROUJON  JEROME M 00:41:39
24 93 269  CHEVALIER  DENIS M 00:41:40
25 96 1085  RENAUD  JEAN DANIEL M 00:41:45
26 99 1020  DEFRANCE  OLIVIER M 00:41:50
27 100 682  OULD LARBI  SMAIN M 00:41:55
28 104 756  PONTHIEUX  JEAN MICHEL M 00:42:18
29 105 477  JARLAUD  EMMANUEL M 00:42:23
30 106 775  RABILLON  GREGORY M 00:42:24
31 107 1093  MALFONDET  VINCENT M 00:42:25
32 108 360  FURET  STEPHANE M 00:42:28
33 109 491  JONAS  CHRISTOPHE M 00:42:30
34 111 562  MADONNA  THOMAS M 00:42:38
35 112 319  ERIC  TOSI M 00:42:38
36 116 803  RIDEL  JAKUB M 00:42:51
37 118 1041  BERNARD  PHILIPPE M 00:42:54
38 121 15  AMIOT  OLIVIER M 00:43:03
39 122 954  GUILLEMINOT  XAVIER M 00:43:05
40 125 469  JACQUEMARD  FREDERIC M 00:43:08
41 129 958  ZERNADJI  SAMIR M 00:43:12
42 131 412  GRABER  ALAIN M 00:43:15
43 133 885  TEJEDOR DUHAMEL  RAFAEL M 00:43:18
44 136 138  BOUVET  FABIEN M 00:43:20
45 138 1082  VIVIEN  STEPHANE M 00:43:21
46 141 600  MASSOT  JEROME M 00:43:28
47 143 167  CANNARD  STEPHANE M 00:43:29
48 147 46  BAUDHOIN  JULIEN M 00:43:33
49 148 48  BAUDOUIN  DAVID M 00:43:34
50 150 216  CONDETTE  ALAIN M 00:43:41
51 152 1070  BESSON  PASCAL M 00:43:45
52 159 50  BAUT  OLIVIER M 00:44:01
53 163 532  LEMAIRE  CHRISTOPHE M 00:44:03
54 164 720  PERRIN  THIERRY M 00:44:04
55 167 1101  FLEURIEAU  DAVID M 00:44:08
56 174 1072  SIMON  BENOIT M 00:44:24
57 175 78  BEY  ALEXANDRE M 00:44:28
58 180 594  MARTIN  VINCENT M 00:44:32
59 190 55  BEAUMONT  YANNICK M 00:44:43
60 193 759  POULLEAU  FRANCOIS M 00:44:45
61 195 464  HYOT  SYLVAIN M 00:44:45
62 200 126  BOULZAT  GERARD M 00:44:48
63 212 948  VOULQUIN  FABRICE M 00:45:03
64 214 40  BARREIRA  MANUEL M 00:45:05
65 219 837  SALAH  BELGACEM M 00:45:17
66 221 560  MAAFER  ABDELKRIM M 00:45:18
67 226 109  BORGES  ALEXANDRE M 00:45:24
68 227 624  MICHEL  OLIVIER M 00:45:26
69 232 518  LAURENT  EMMANUEL M 00:45:30
70 233 868  SIMONNOT  LAURENT M 00:45:38
71 234 52  BEAUGEY  DOMINIQUE M 00:45:39
72 236 84  BITON  EMMANUEL M 00:45:42
73 240 1022  CLEVER  JEAN CHARLES M 00:45:49
74 241 435  GUILLEMIER  SEBASTIEN M 00:45:52
75 245 5  ALADAME  STEPHANE M 00:45:56
76 246 242  DUBOZ  DAMIEN M 00:46:00
77 248 622  MICHAUD  MICKAEL M 00:46:01
78 249 408  GOUIFFES  PHILIPPE M 00:46:02
79 251 428  GUICHARD  SEBASTIEN M 00:46:04
80 252 212  COLLIN  ARNAUD M 00:46:04
81 256 336  FERNANDEZ  DANIEL M 00:46:08
82 263 672  NORET  CEDRIC M 00:46:16
83 269 833  SAID  BENJDIR M 00:46:27
84 273 289  DOLE  JULIEN M 00:46:33
85 274 485  JEANNEL  STEPHANE M 00:46:35
86 276 841  SANCHEZ  FRANCOIS M 00:46:39
87 278 156  BRUN  BERTRAND M 00:46:40
88 280 183  CHAMPMARTIN  NICOLAS M 00:46:44
89 281 732  PICART  SEBASTIEN M 00:46:44
90 282 274  DESCHAMPS  JEAN BAPTISTE M 00:46:45
91 284 430  GUIDI  STEPHANE M 00:46:48
92 306 684  OZERAY  CHRISTOPHE M 00:47:13
93 308 745  PLATRET  SEBASTIEN M 00:47:15
94 310 746  PODECHARD  CYRILLE M 00:47:19
95 315 506  LAIRE  CYRILLE M 00:47:21
96 323 296  DU PELOUX  PHILIPPE M 00:47:30
97 324 153  BROCHIN  JEAN MARC M 00:47:34
98 326 898  FUTELIN  THIERRY M 00:47:35
99 338 164  CAILLOT  NICOLAS M 00:47:48
100 340 8  ALIBERT  DAVID M 00:47:50
101 342 838  SAMMARTINO  THIERRY M 00:47:52
102 344 565  MAILLARD  JEAN CHARLES M 00:47:55
103 345 795  RENAUD  OLIVIER M 00:47:56
104 346 299  DUDRAGNE  LUDOVIC M 00:47:59
105 347 460  HUMBERT  FABRICE M 00:48:00
106 353 812  ROSA  DOMINGOS M 00:48:06
107 358 870  SIRODOT  LAURENT M 00:48:14
108 360 922  VACHEY  ARNAUD M 00:48:17
109 368 947  VOISIN  FABRICE M 00:48:23
110 370 757  PORCHEROT  BERTRAND M 00:48:24
111 372 1038  NUGUES  REGIS M 00:48:27
112 375 1025  BAZEROLLE  REMI M 00:48:31
113 378 661  NICOLARDOT  FRANCK M 00:48:34
114 383 615  MERCIER  SYLVAIN M 00:48:45
115 389 742  PIZANA  CYRIL M 00:48:52
116 390 463  HUSY  DAVID M 00:48:53
117 397 154  BRONDEAULT  GAEL M 00:49:03
118 399 801  RICHARD  SYLVAIN M 00:49:04
119 406 332  FAVARDIN  FLORENT M 00:49:12
120 411 471  JACQUESON  DAVID M 00:49:13
121 417 710  PERNIN  FABRICE M 00:49:17
122 420 597  MARY  SEBASTIEN M 00:49:19
123 421 863  SERAFIN  GABRIEL M 00:49:21
124 424 938  VIARD  CEDRIC M 00:49:26
125 425 561  MACHERET  SEBASTIEN M 00:49:28
126 428 318  ROBARDET  ERIC M 00:49:36
127 429 896  THIBERT  CHRISTOPHE M 00:49:36
128 437 876  BRENIAUX  STEPHANE M 00:49:48
129 438 529  LEFORT  ALEXANDRE M 00:49:49
130 441 783  RAVENET  BRICE M 00:49:55
131 444 817  ROTTIER  GUILLAUME M 00:50:00
132 450 719  PERRIN  SEBASTIEN M 00:50:05
133 452 811  ROMAGNAN  HUGUES M 00:50:10
134 458 692  PANIN  STEPHANE M 00:50:12
135 459 91  BOISSY  PHILIPPE M 00:50:12
136 460 185  CHAPPA  GILLES M 00:50:14
137 461 626  MILLET  F M 00:50:17
138 466 129  BOURGEOIS  FRANCK M 00:50:28
139 467 735  COLLIN  PIERRE YVES M 00:50:28
140 470 669  NONQUE  JEAN SEBASTIEN M 00:50:31
141 473 371  GAULARD  HENRI M 00:50:32
142 477 919  TROUF  VINCENT M 00:50:35
143 479 123  BOULET  LILIAN M 00:50:40
144 480 30  BAGUET  CEDRIC M 00:50:40
145 481 394  GIRARD  PHILIPPE M 00:50:42
146 482 1033  GUILLOT  FREDERIC M 00:50:44
147 484 621  MICALI  MANU M 00:50:48
148 489 563  MAGNIEN  DAVID M 00:50:56
149 490 218  CONTANT  NICOLAS M 00:50:57
150 491 955  MOURELON  XAVIER M 00:50:58
151 494 1032  RAMEAU  JEROME M 00:51:00
152 498 874  SPADA  SYLVAIN M 00:51:05
153 503 872  SOLONO  DAVID M 00:51:08
154 508 637  MONGAZON  YANNICK M 00:51:14
155 512 1107  HOMAT  JEAN DANIEL M 00:51:19
156 515 687  PAIN  FABRICE M 00:51:26
157 524 193  CHAUSSADE  SYLVAIN M 00:51:45
158 526 191  CHARRA  CLEMENT M 00:51:47
159 532 443  GUYOT  THOMAS M 00:51:53
160 534 450  HERMEREL  GILLES M 00:51:58
161 537 799  REVERCHON  SEBASTIEN M 00:52:02
162 538 1001  DUCERF  PIERRE YVES M 00:52:06
163 541 1063  CARLOT  LUDOVIC M 00:52:11
164 545 550  LONGOBUCCO  FRANCOIS M 00:52:13
165 549 1087  MARCHAND  ROMUALD M 00:52:18
166 564 921  VACCHIANI  PATRICK M 00:52:30
167 567 596  MARTINEZ  SANTIAGO M 00:52:32
168 582 515  LARTEAU  IVAN M 00:52:46
169 585 292  DOUBLOT  SEBASTIEN M 00:52:47
170 587 941  VILLENEUVE  ANTHONY M 00:52:49
171 601 198  CHEVALIER  DENIS M 00:53:08
172 614 820  ROUPIN  PIERRE YVES M 00:53:30
173 615 1130  DULERY  STEPHANE M 00:53:31
174 633 236  SINGER  CYRILLE M 00:53:58
175 636 44  BASTIEN  YANNICK M 00:54:03
176 639 849  SAUSSURE  PIERRE M 00:54:04
177 644 467  ISAIE  JEAN CHRISTOPHE M 00:54:13
178 652 501  LACHAUX  THIERRY M 00:54:21
179 667 244  DANTON  THIERRY M 00:54:32
180 672 932  VERNUSSE  PHILIPPE M 00:54:40
181 673 858  SECULA  ALAIN NICOLAS M 00:54:40
182 677 34  BARATIN  NICOLAS M 00:54:43
183 678 877  NEVEU  STEPHEN M 00:54:48
184 681 115  BOUCINHA  JOSE M 00:54:57
185 692 527  LECORRE  ROMAIN M 00:55:08
186 693 155  BROYER  STEPHANE M 00:55:10
187 700 414  GRANDVINCENT  FABRICE M 00:55:23
188 709 926  VALLON  ANTHONY M 00:55:32
189 713 879  STUDLI  HERVE M 00:55:38
190 725 365  GALLAIT  THIERRY M 00:55:53
191 731 290  DOREY  SIMON M 00:55:57
192 740 1100  PRZYBYLA  SYLVAIN M 00:56:15
193 743 285  DICONNE  CHRISTOPHE M 00:56:22
194 744 1083  DEPIESSE  SYLVAIN M 00:56:24
195 756 540  L'HEVEDER  GWENDAL M 00:56:36
196 758 656  NASSIVERA  MANUEL M 00:56:41
197 767 135  BOUTARD  BRUNO M 00:56:52
198 768 413  GRANDPIERRE  SEBASTIEN M 00:56:56
199 778 918  TRINQUESSE  JEROME M 00:57:17
200 787 546  LOIR  LILIAN M 00:57:42
201 793 986  JACOB  SYLVAIN M 00:57:54
202 797 39  BARRADI  ABDEL JABBAR M 00:57:55
203 798 177  CHALANCON  MICHAEL M 00:57:55
204 803 774  QUIGNARD  FRANCOIS M 00:58:02
205 808 396  GIRARD PECARRERE  BENOIT M 00:58:05
206 822 66  BERNARD  JEAN BAPTISTE M 00:58:17
207 824 260  DELACROIX  ARNAUD M 00:58:18
208 825 647  MORI  JEROME M 00:58:20
209 846 325  CUVILLIER  FABRICE M 00:58:55
210 852 197  CHEVALIER  CHRISTOPHE M 00:59:04
211 882 423  GROSPERRIN  PHILIPPE M 00:59:53
212 891 1061  LEDAIN  LAURENT M 01:00:25
213 893 131  BOURGEOIS  REGIS M 01:00:36
214 911 854  SCHIFFMACHER  CEDRIC M 01:01:11
215 924 1131  GUYOT  CEDRIC M 01:01:54
216 925 18  ANDRE  FREDERIC M 01:01:58
217 968 1045  SURIER  ERIC M 01:03:53
218 970 377  GAUTHIER  FLORENT M 01:03:54
219 975 271  DEROY  SYLVAIN M 01:04:00
220 981 456  HONGROIS  FABRICE M 01:04:29
221 998 805  RIFFARD  SYLVAIN M 01:06:07
222 1018 228  COULON  MICHAEL M 01:08:06
223 1023 578  MARGUIER  LAURENT M 01:08:24
224 1035 787  RAY  BERTRAND M 01:09:18
225 1047 605  MAUGRAS  LUDOVIC M 01:12:19
226 1064 979  CHIPOT  WILLIAM M 01:36:27
M2 - F 1 296 370  GAUDILLERE  SYLVIE F 00:47:05
2 363 111  BOSIA  ANNE F 00:48:19
3 380 209  CLERE  CHRISTINE F 00:48:39
4 474 261  DELATTRE  LYDIE F 00:50:33
5 501 1076  ALEXANDRE  LAURENCE F 00:51:07
6 522 314  ENARD  JULIA F 00:51:44
7 556 333  FAVIER  ANNICK F 00:52:22
8 586 1051  GAHIR  FLORENCE F 00:52:47
9 588 1069  LOUDENOT  MICHELLE F 00:52:51
10 620 931  VERNIZEAU  ELISABETH F 00:53:41
11 632 573  MANSANO  NATHALIE F 00:53:58
12 676 697  PARIS  CATHERINE F 00:54:42
13 682 418  GRILLET  MARYSE F 00:54:57
14 684 173  GUINDEY  CATHERINE F 00:54:58
15 708 762  PRENEY  DOMINIQUE F 00:55:32
16 749 587  MARONNAT  EVELYNE F 00:56:30
17 755 704  PATIES  CATHERINE F 00:56:35
18 761 832  SAGON  CATHERINE F 00:56:43
19 770 908  TONOT  SYLVIE F 00:56:59
20 779 538  LEZE  CHRISTINE F 00:57:21
21 792 712  PERNOT  ANNA F 00:57:51
22 809 211  COGNY  BENEDICTE F 00:58:05
23 877 207  CLERC  FRANCOISE F 00:59:44
24 884 590  MAROT  VERONIQUE F 00:59:58
25 895 301  DUFFOURD  BRIGITTE F 01:00:37
26 896 856  SCHWEISS  CATHY F 01:00:38
27 899 772  QUATRALE  SYLVIE F 01:00:47
28 904 97  BONNET  CORINNE F 01:00:55
29 939 542  LIORET  CORINNE F 01:02:48
30 946 293  DOUSSOT  CORINE F 01:03:08
31 990 541  L'HOSTE  PATRICIA F 01:05:26
32 997 852  SAUVEE  VERONIQUE F 01:06:01
33 1016 466  CORNET  ISABELLE F 01:07:50
34 1026 608  MAURICE  CHRISTINE F 01:08:32
35 1045 993  DARGEGEN  BELEN F 01:12:17
36 1046 119  BOUGAUD  BRIGITTE F 01:12:18
37 1052 105  BORDET  BLANDINE F 01:12:44
38 1062 802  RICHARD GRAS  FABIENNE F 01:18:04
M2 - M 1 32 517  BELOT  LAURENT M 00:38:51
2 36 184  CHANUSSOT  CHRISTOPHE M 00:38:59
3 70 646  MORGAN  TREVOR M 00:40:54
4 84 887  TERVILLE  CHRISTOPHE M 00:41:20
5 89 204  CINIER  REGIS M 00:41:37
6 101 295  DRUT  CHRISTOPHE M 00:42:02
7 110 1091  MORTET  THIERRY M 00:42:35
8 115 752  POMPANON  JEAN FRANCOIS M 00:42:48
9 120 486  JOACHIM  FERNANDEZ M 00:43:00
10 123 763  PRENEY  PATRICE M 00:43:05
11 124 968  LARONZE  FABIEN M 00:43:07
12 126 206  BONIN  CLAUDE M 00:43:09
13 127 915  TREUILLET  CHRISTOPHE M 00:43:10
14 128 255  DECRESSAC  PATRICK M 00:43:11
15 132 972  GRILLET  NOEL M 00:43:15
16 151 203  CIESLIK  MARC M 00:43:45
17 153 1018  RENAUD  ROLAND M 00:43:46
18 154 967  GARRY  PATRICK M 00:43:46
19 155 689  PAIS DE BARROS  JEAN PAUL M 00:43:49
20 156 510  LANDRE  BRUNO M 00:43:53
21 157 145  BRESSON  THIERRY M 00:43:57
22 160 220  CONXICOEUR  ALAIN M 00:44:02
23 181 407  GOSSET  DANIEL M 00:44:34
24 182 963  LARONZE  FRED M 00:44:35
25 183 998  WARREN  PAUL M 00:44:36
26 205 571  MALSOT  XAVIER M 00:44:52
27 206 421  GROSPERRIN  GILLES M 00:44:55
28 213 902  TILLIER  MICHEL M 00:45:04
29 216 234  CUCO  EDALBERTO M 00:45:06
30 238 822  ROUSSEAU  ERIC M 00:45:48
31 242 836  SAINT PAUL  WILLIAM M 00:45:53
32 247 180  CHAMAYOU  JEAN PHILIPPE M 00:46:01
33 255 305  DUPLOYER  PHILIPPE M 00:46:08
34 260 944  VINCENZI  PATRICK M 00:46:10
35 264 659  NEMARD  OLIVIER M 00:46:20
36 265 576  MARGAROLI  ERIC M 00:46:21
37 268 1099  BOURCIER  LAURENT M 00:46:23
38 271 32  BAILLEUX  ERIC M 00:46:32
39 279 458  HUARD  PASCAL M 00:46:42
40 290 589  MAROT  PATRICK M 00:46:54
41 293 444  HADJ BOUZIANE  RABAH M 00:46:58
42 294 297  DUBARD  JEAN CHRISTOPHE M 00:46:58
43 295 388  GIBOULOT  PATRICK M 00:47:01
44 300 1081  SAUSSIER  PHILIPPE M 00:47:07
45 301 946  VOILLARD  JACKY M 00:47:07
46 302 699  PARIZE  CHRISTOPHE M 00:47:07
47 307 241  DAL PIVA  REMY M 00:47:14
48 309 769  PUGEAUT  ERIC M 00:47:17
49 312 410  GOUX  MICHEL M 00:47:20
50 313 221  COQUILLARD  FRANCOIS M 00:47:21
51 316 907  TONOT  PATRICK M 00:47:22
52 319 635  MOLL  FREDERIC M 00:47:24
53 320 703  DURAND  PASCAL M 00:47:25
54 321 613  MELIN  PHILIPPE M 00:47:27
55 322 330  FAUCONNET  BERNARD M 00:47:28
56 329 385  GEREAU  JEAN YVES M 00:47:41
57 331 733  PICHARD  PATRICK M 00:47:41
58 332 375  GAUTHEY  MICHEL M 00:47:43
59 333 618  MESSE  FREDERIC M 00:47:43
60 337 379  GAVORY  ERIC M 00:47:48
61 341 678  OLLIN  CLAUDE M 00:47:50
62 356 106  BORDET  DOMINIQUE M 00:48:08
63 362 674  NOUVILLE  MARTIAL M 00:48:19
64 364 631  MOLET  JEAN PIERRE M 00:48:20
65 379 827  ROVILLE  PHILIPPE M 00:48:36
66 408 847  SARRASIN  LAURENT M 00:49:13
67 410 47  BAUDOIN  PASCAL M 00:49:13
68 412 588  MARONNAT  SERGE M 00:49:13
69 414 764  PRIEM  YVES M 00:49:15
70 415 1095  DELAPORTE  ALAIN M 00:49:15
71 416 834  SAINT GILLES  BERTRAND M 00:49:16
72 427 287  GAY  DIDIER M 00:49:31
73 432 49  BAUSSART  ERIC M 00:49:40
74 434 1008  MILLOT  CYRIAQUE M 00:49:45
75 439 1034  OULEVEY  THIERRY M 00:49:51
76 442 298  DUCAROUGE  BRUNO M 00:49:57
77 447 470  JACQUESON  CLAUDE M 00:50:03
78 451 74  BERT  MICHEL M 00:50:06
79 453 303  DUMOUX  PHILIPPE M 00:50:11
80 463 855  SCHNEIDER  OLIVIER M 00:50:21
81 472 609  MAURICE  RALPH M 00:50:32
82 488 348  CORDIER  FRANCIS M 00:50:54
83 499 706  MAROLLEAU  PATRICE M 00:51:06
84 504 592  MARTIN  LOIC M 00:51:08
85 513 404  GODEMET  OLIVIER M 00:51:21
86 521 625  MICHOT  PASCAL M 00:51:40
87 525 807  ROBELEY  DANIEL M 00:51:45
88 531 707  PAYEN  JACQUES M 00:51:52
89 533 181  CHAMBOST  JEAN CLAUDE M 00:51:53
90 539 525  LECOMTE  LIONEL M 00:52:07
91 547 351  FRANCOIS  LUC M 00:52:16
92 548 446  HARSTRICH  LUC M 00:52:18
93 553 445  HAMMANN  JEROME M 00:52:21
94 554 920  UVALLE  PATRICK M 00:52:21
95 557 1048  MAUCHAND  ERIC M 00:52:24
96 562 894  THIBEAUT  JEAN MARC M 00:52:29
97 563 390  GILET  ERIC M 00:52:29
98 572 217  CONDETTE  PASCAL M 00:52:35
99 574 68  BERNARD  LUDOVIC M 00:52:38
100 584 555  LOUISOT  ERIC M 00:52:46
101 589 1096  DUMOULIN  PIERRE M 00:52:53
102 595 337  FERRAZ  JOSE M 00:52:56
103 603 134  BOURRY  FRANCK M 00:53:14
104 618 1057  MILLE  BENOIT M 00:53:37
105 621 814  ROSIER  DIDIER M 00:53:43
106 630 16  AMIOT  PASCAL M 00:53:54
107 647 476  JARDIN  THIERRY M 00:54:17
108 657 300  DUFEU  JACQUES M 00:54:24
109 664 321  EYMANN  ALAIN M 00:54:30
110 669 865  SIMON  GILLES M 00:54:36
111 675 502  LACORRE  DIDIER M 00:54:41
112 679 1135  SOUCELIER  PATRICE M 00:54:52
113 702 1010  GROSJEAN  THIERRY M 00:55:24
114 716 1049  GAHIR  XAVIER M 00:55:43
115 732 256  DEGARDIN  PASCAL M 00:55:57
116 741 1079  ALEXANDRE  BRUNO M 00:56:19
117 751 161  BURSON  DIDIER M 00:56:32
118 760 1012  MOUREY  FRANCOIS M 00:56:43
119 782 888  TETU  ALAIN M 00:57:32
120 796 714  PERREAU  JEROME M 00:57:55
121 812 911  TOURIGNY  JEAN LUC M 00:58:06
122 830 401  GIROUX  FABRICE M 00:58:22
123 833 59  BEERLI  GILLES M 00:58:27
124 863 28  AUPLAT  PATRICK M 00:59:18
125 866 758  PORCHEROT  DIDIER M 00:59:21
126 871 455  HOLLIGER  ALAIN M 00:59:32
127 879 810  CARNET  ROLAND M 00:59:49
128 903 147  BREUGNOT  LUC M 01:00:52
129 919 353  PISTRE  FRANCOIS M 01:01:32
130 928 240  DAHLEN  STEPHANE M 01:02:15
131 941 1021  BOULEY  BERNARD M 01:02:59
132 948 728  PHILIPPOT  DANIEL M 01:03:11
133 962 1000  POIRIER  GILLES M 01:03:40
134 973 357  FROTEY  ERIC M 01:03:57
135 985 989  JHEAN  PIERRE M 01:04:56
136 989 960  ZIMMER  CHRISTOPHE M 01:05:13
137 1027 210  CLUZEAU  JEAN MARC M 01:08:32
138 1063 101  BONOT  FRANCIS M 01:18:06
M3 - F 1 575 564  MAGNIEN  FRANCOISE F 00:52:39
2 724 382  GENAY  NADINE F 00:55:52
3 1001 307  DUPUIS  DUPUIS F 01:06:17
4 1056 708  PAYET  MARIE F 01:14:29
M3 - M 1 86 1053  HEISE  UWE M 00:41:31
2 87 785  RAVERA  BRUNO M 00:41:35
3 140 345  FONTAINE  BERNARD M 00:43:24
4 162 750  POL  ALAIN M 00:44:03
5 172 519  LEBLANC  MICHEL M 00:44:21
6 185 247  DAVID  JEAN PIERRE M 00:44:39
7 198 1055  MAZEAU  DANIEL M 00:44:47
8 210 741  PITOISET  GERARD M 00:45:01
9 237 943  VINCENT  LIONEL M 00:45:43
10 253 591  MARTIN  JEAN PAUL M 00:46:06
11 283 1067  TOUBOUL  MICHEL M 00:46:46
12 299 327  FAMY  JEAN PAUL M 00:47:06
13 348 559  LUGA  JEAN M 00:48:02
14 351 100  BONNIN  GERARD M 00:48:04
15 354 1006  VINCENT  PHILIPPE M 00:48:07
16 431 498  KERBLAT  MICHEL M 00:49:39
17 440 387  GIBOULOT  JEAN PIERRE M 00:49:54
18 478 638  MONIET  DOMINIQUE M 00:50:37
19 487 90  BOISSELIER  GILBERT M 00:50:50
20 502 194  CHAUSSIN  MICHEL M 00:51:07
21 517 1046  RENIER  PATRICE M 00:51:35
22 520 978  POL  BERNARD M 00:51:40
23 536 24  AUDIFREDI  ALAIN M 00:52:00
24 611 140  BOYER  JEAN FRANCOIS M 00:53:20
25 616 1090  COPINET  JEAN M 00:53:33
26 638 825  ROUX  PHILIPPE M 00:54:04
27 686 593  MARTIN  PATRICK M 00:55:00
28 730 432  GUILLAUME  DENIS M 00:55:57
29 737 953  WRIGHT  SCOTT M 00:56:13
30 757 900  THOMAS  GERARD M 00:56:40
31 762 650  MOTTEY  MICHEL M 00:56:43
32 763 62  BELVER  LUCIEN M 00:56:45
33 817 716  PERRIER  GEORGES M 00:58:10
34 878 782  RAVAUD  PHILIPPE M 00:59:48
35 881 118  BOUDOT  JEAN PAUL M 00:59:51
36 887 725  PETIT  JEAN LUC M 01:00:14
37 897 495  JUILLARD  JEAN M 01:00:43
38 914 113  BOUCHARD  DIDIER M 01:01:22
39 917 417  GREFFE  GERARD M 01:01:28
40 932 386  GHISLANDI  MARC M 01:02:30
41 952 1106  GUILLAUME  PAUL M 01:03:18
42 987 369  GASPAROTTO  BERNARD M 01:05:09
M4 - F 1 1060 114  BOUCHARD  GISELE F 01:18:03
M4 - M 1 287 267  DEMOLOMBE  CLAUDE M 00:46:52
2 336 851  SAUVAGEOT  BERNARD M 00:47:47
3 422 149  BRIOT  ALAIN M 00:49:22
4 653 643  MONZAIN  MICHEL M 00:54:22
5 656 977  TRIPONNEY  BERNARD M 00:54:24
6 733 889  TEXIER  CHRISTIAN M 00:56:06
7 828 1035  GUILLEMIER  JACQUES M 00:58:22
8 902 262  DELBURY  GERARD M 01:00:51
9 921 478  JARLAUD  MICHEL M 01:01:40
10 1002 995  RABIET  JEAN LOUIS M 01:06:18

 

 

Les résultats vous sont offerts par

Télécharger en pdf

 

 

 

 

 

 

 

 

 

 

 

 

 

 

 

 

 

 

 

 

 

chronometrage,chronométrage, sportif, chrono, course, course à pied, trail, trails, couse nature, puce